sensor_id;sensor_type;location;lat;lon;timestamp;temperature;humidity
15543;DHT22;7873;52.230;12.856;2023-07-16T00:00:09;26.00;58.00
15543;DHT22;7873;52.230;12.856;2023-07-16T00:02:37;26.00;58.30
15543;DHT22;7873;52.230;12.856;2023-07-16T00:05:04;25.90;58.20
15543;DHT22;7873;52.230;12.856;2023-07-16T00:07:31;25.90;58.30
15543;DHT22;7873;52.230;12.856;2023-07-16T00:09:58;25.90;58.30
15543;DHT22;7873;52.230;12.856;2023-07-16T00:12:24;25.90;58.30
15543;DHT22;7873;52.230;12.856;2023-07-16T00:14:51;25.90;58.60
15543;DHT22;7873;52.230;12.856;2023-07-16T00:17:19;25.90;58.50
15543;DHT22;7873;52.230;12.856;2023-07-16T00:19:46;25.90;58.80
15543;DHT22;7873;52.230;12.856;2023-07-16T00:22:12;25.80;58.60
15543;DHT22;7873;52.230;12.856;2023-07-16T00:24:39;25.80;58.90
15543;DHT22;7873;52.230;12.856;2023-07-16T00:27:06;25.90;58.80
15543;DHT22;7873;52.230;12.856;2023-07-16T00:29:32;25.90;58.90
15543;DHT22;7873;52.230;12.856;2023-07-16T00:31:59;25.80;58.60
15543;DHT22;7873;52.230;12.856;2023-07-16T00:34:27;25.80;58.90
15543;DHT22;7873;52.230;12.856;2023-07-16T00:36:54;25.80;58.60
15543;DHT22;7873;52.230;12.856;2023-07-16T00:39:26;25.80;58.50
15543;DHT22;7873;52.230;12.856;2023-07-16T00:41:53;25.90;58.20
15543;DHT22;7873;52.230;12.856;2023-07-16T00:44:20;25.90;57.90
15543;DHT22;7873;52.230;12.856;2023-07-16T00:46:47;26.00;57.80
15543;DHT22;7873;52.230;12.856;2023-07-16T00:49:14;26.00;57.70
15543;DHT22;7873;52.230;12.856;2023-07-16T00:51:42;26.00;57.70
15543;DHT22;7873;52.230;12.856;2023-07-16T00:54:09;26.00;57.60
15543;DHT22;7873;52.230;12.856;2023-07-16T00:56:36;26.10;57.50
15543;DHT22;7873;52.230;12.856;2023-07-16T00:59:03;26.00;57.80
15543;DHT22;7873;52.230;12.856;2023-07-16T01:01:30;26.00;58.00
15543;DHT22;7873;52.230;12.856;2023-07-16T01:03:57;26.00;58.10
15543;DHT22;7873;52.230;12.856;2023-07-16T01:06:25;26.00;58.40
15543;DHT22;7873;52.230;12.856;2023-07-16T01:09:03;26.00;58.90
15543;DHT22;7873;52.230;12.856;2023-07-16T01:11:33;26.00;58.80
15543;DHT22;7873;52.230;12.856;2023-07-16T01:14:01;26.00;58.80
15543;DHT22;7873;52.230;12.856;2023-07-16T01:16:28;26.00;58.80
15543;DHT22;7873;52.230;12.856;2023-07-16T01:18:55;26.00;59.20
15543;DHT22;7873;52.230;12.856;2023-07-16T01:21:22;25.80;59.20
15543;DHT22;7873;52.230;12.856;2023-07-16T01:27:01;26.00;59.10
15543;DHT22;7873;52.230;12.856;2023-07-16T01:29:37;25.90;59.00
15543;DHT22;7873;52.230;12.856;2023-07-16T01:32:08;26.00;58.80
15543;DHT22;7873;52.230;12.856;2023-07-16T01:34:37;26.00;58.60
15543;DHT22;7873;52.230;12.856;2023-07-16T01:37:05;26.00;58.50
15543;DHT22;7873;52.230;12.856;2023-07-16T01:39:32;26.00;58.50
15543;DHT22;7873;52.230;12.856;2023-07-16T01:41:59;26.00;58.30
15543;DHT22;7873;52.230;12.856;2023-07-16T01:44:25;26.00;58.60
15543;DHT22;7873;52.230;12.856;2023-07-16T01:47:03;26.00;58.80
15543;DHT22;7873;52.230;12.856;2023-07-16T01:49:31;26.00;58.90
15543;DHT22;7873;52.230;12.856;2023-07-16T01:51:59;26.00;58.90
15543;DHT22;7873;52.230;12.856;2023-07-16T01:54:26;26.10;58.90
15543;DHT22;7873;52.230;12.856;2023-07-16T01:56:52;26.10;58.90
15543;DHT22;7873;52.230;12.856;2023-07-16T01:59:19;26.10;59.00
15543;DHT22;7873;52.230;12.856;2023-07-16T02:01:46;26.10;59.20
15543;DHT22;7873;52.230;12.856;2023-07-16T02:04:14;26.20;58.90
15543;DHT22;7873;52.230;12.856;2023-07-16T02:06:40;26.20;58.90
15543;DHT22;7873;52.230;12.856;2023-07-16T02:09:07;26.20;59.00
15543;DHT22;7873;52.230;12.856;2023-07-16T02:11:34;26.20;59.30
15543;DHT22;7873;52.230;12.856;2023-07-16T02:14:01;26.20;59.40
15543;DHT22;7873;52.230;12.856;2023-07-16T02:16:28;26.10;59.40
15543;DHT22;7873;52.230;12.856;2023-07-16T02:18:54;26.10;59.60
15543;DHT22;7873;52.230;12.856;2023-07-16T02:21:22;26.00;60.00
15543;DHT22;7873;52.230;12.856;2023-07-16T02:23:49;26.10;60.20
15543;DHT22;7873;52.230;12.856;2023-07-16T02:26:16;26.00;60.20
15543;DHT22;7873;52.230;12.856;2023-07-16T02:28:42;26.00;60.70
15543;DHT22;7873;52.230;12.856;2023-07-16T02:31:09;26.00;60.60
15543;DHT22;7873;52.230;12.856;2023-07-16T02:33:35;25.90;61.20
15543;DHT22;7873;52.230;12.856;2023-07-16T02:36:02;25.90;61.40
15543;DHT22;7873;52.230;12.856;2023-07-16T02:38:31;25.80;61.80
15543;DHT22;7873;52.230;12.856;2023-07-16T02:40:57;25.90;61.40
15543;DHT22;7873;52.230;12.856;2023-07-16T02:43:24;25.90;61.40
15543;DHT22;7873;52.230;12.856;2023-07-16T02:45:51;25.90;61.20
15543;DHT22;7873;52.230;12.856;2023-07-16T02:48:17;25.90;61.30
15543;DHT22;7873;52.230;12.856;2023-07-16T02:50:44;25.80;61.60
15543;DHT22;7873;52.230;12.856;2023-07-16T02:53:11;25.80;61.90
15543;DHT22;7873;52.230;12.856;2023-07-16T02:55:39;25.80;62.00
15543;DHT22;7873;52.230;12.856;2023-07-16T02:58:05;25.80;61.70
15543;DHT22;7873;52.230;12.856;2023-07-16T03:00:32;25.70;62.40
15543;DHT22;7873;52.230;12.856;2023-07-16T03:02:59;25.70;62.40
15543;DHT22;7873;52.230;12.856;2023-07-16T03:05:26;25.70;62.60
15543;DHT22;7873;52.230;12.856;2023-07-16T03:07:53;25.70;63.50
15543;DHT22;7873;52.230;12.856;2023-07-16T03:10:20;25.70;62.10
15543;DHT22;7873;52.230;12.856;2023-07-16T03:12:48;25.80;61.80
15543;DHT22;7873;52.230;12.856;2023-07-16T03:15:15;25.90;61.70
15543;DHT22;7873;52.230;12.856;2023-07-16T03:17:42;25.80;62.00
15543;DHT22;7873;52.230;12.856;2023-07-16T03:20:09;25.80;62.00
15543;DHT22;7873;52.230;12.856;2023-07-16T03:22:36;25.80;62.00
15543;DHT22;7873;52.230;12.856;2023-07-16T03:25:03;25.80;62.00
15543;DHT22;7873;52.230;12.856;2023-07-16T03:27:30;25.80;62.00
15543;DHT22;7873;52.230;12.856;2023-07-16T03:29:58;25.90;62.00
15543;DHT22;7873;52.230;12.856;2023-07-16T03:32:25;25.70;62.10
15543;DHT22;7873;52.230;12.856;2023-07-16T03:34:52;25.70;62.20
15543;DHT22;7873;52.230;12.856;2023-07-16T03:37:18;25.70;61.90
15543;DHT22;7873;52.230;12.856;2023-07-16T03:39:45;25.80;62.00
15543;DHT22;7873;52.230;12.856;2023-07-16T03:42:12;25.80;61.70
15543;DHT22;7873;52.230;12.856;2023-07-16T03:44:38;25.80;62.00
15543;DHT22;7873;52.230;12.856;2023-07-16T03:47:06;25.80;62.20
15543;DHT22;7873;52.230;12.856;2023-07-16T03:49:33;25.80;62.10
15543;DHT22;7873;52.230;12.856;2023-07-16T03:52:00;25.80;61.80
15543;DHT22;7873;52.230;12.856;2023-07-16T03:54:26;25.80;62.10
15543;DHT22;7873;52.230;12.856;2023-07-16T03:56:53;25.80;62.00
15543;DHT22;7873;52.230;12.856;2023-07-16T03:59:20;25.70;61.90
15543;DHT22;7873;52.230;12.856;2023-07-16T04:01:47;25.80;62.00
15543;DHT22;7873;52.230;12.856;2023-07-16T04:04:15;25.70;62.10
15543;DHT22;7873;52.230;12.856;2023-07-16T04:06:42;25.80;62.10
15543;DHT22;7873;52.230;12.856;2023-07-16T04:09:09;25.70;62.10
15543;DHT22;7873;52.230;12.856;2023-07-16T04:11:35;25.70;62.10
15543;DHT22;7873;52.230;12.856;2023-07-16T04:14:02;25.80;62.00
15543;DHT22;7873;52.230;12.856;2023-07-16T04:16:28;25.70;61.80
15543;DHT22;7873;52.230;12.856;2023-07-16T04:18:55;25.70;62.00
15543;DHT22;7873;52.230;12.856;2023-07-16T04:21:23;25.70;62.20
15543;DHT22;7873;52.230;12.856;2023-07-16T04:23:50;25.70;61.90
15543;DHT22;7873;52.230;12.856;2023-07-16T04:26:16;25.70;62.30
15543;DHT22;7873;52.230;12.856;2023-07-16T04:28:43;25.70;62.30
15543;DHT22;7873;52.230;12.856;2023-07-16T04:31:10;25.60;62.20
15543;DHT22;7873;52.230;12.856;2023-07-16T04:33:36;25.60;62.20
15543;DHT22;7873;52.230;12.856;2023-07-16T04:36:03;25.70;61.80
15543;DHT22;7873;52.230;12.856;2023-07-16T04:38:31;25.60;62.40
15543;DHT22;7873;52.230;12.856;2023-07-16T04:40:58;25.60;62.30
15543;DHT22;7873;52.230;12.856;2023-07-16T04:43:25;25.60;62.40
15543;DHT22;7873;52.230;12.856;2023-07-16T04:45:51;25.50;62.60
15543;DHT22;7873;52.230;12.856;2023-07-16T04:48:18;25.70;62.40
15543;DHT22;7873;52.230;12.856;2023-07-16T04:50:44;25.50;63.00
15543;DHT22;7873;52.230;12.856;2023-07-16T04:53:11;25.20;64.20
15543;DHT22;7873;52.230;12.856;2023-07-16T04:55:39;25.10;64.70
15543;DHT22;7873;52.230;12.856;2023-07-16T04:58:06;25.20;64.40
15543;DHT22;7873;52.230;12.856;2023-07-16T05:00:33;25.60;63.40
15543;DHT22;7873;52.230;12.856;2023-07-16T05:02:59;25.70;62.50
15543;DHT22;7873;52.230;12.856;2023-07-16T05:05:26;25.70;62.30
15543;DHT22;7873;52.230;12.856;2023-07-16T05:07:53;25.80;62.30
15543;DHT22;7873;52.230;12.856;2023-07-16T05:10:20;25.80;61.90
15543;DHT22;7873;52.230;12.856;2023-07-16T05:12:48;25.90;61.20
15543;DHT22;7873;52.230;12.856;2023-07-16T05:15:15;25.90;61.70
15543;DHT22;7873;52.230;12.856;2023-07-16T05:17:41;26.00;62.10
15543;DHT22;7873;52.230;12.856;2023-07-16T05:20:08;25.90;62.00
15543;DHT22;7873;52.230;12.856;2023-07-16T05:22:36;25.80;61.90
15543;DHT22;7873;52.230;12.856;2023-07-16T05:25:03;25.80;62.20
15543;DHT22;7873;52.230;12.856;2023-07-16T05:27:30;25.80;62.40
15543;DHT22;7873;52.230;12.856;2023-07-16T05:29:58;25.70;62.40
15543;DHT22;7873;52.230;12.856;2023-07-16T05:32:24;25.80;62.10
15543;DHT22;7873;52.230;12.856;2023-07-16T05:34:51;25.80;62.00
15543;DHT22;7873;52.230;12.856;2023-07-16T05:37:17;25.70;62.40
15543;DHT22;7873;52.230;12.856;2023-07-16T05:39:44;25.80;62.00
15543;DHT22;7873;52.230;12.856;2023-07-16T05:42:11;26.00;61.20
15543;DHT22;7873;52.230;12.856;2023-07-16T05:44:37;26.20;60.30
15543;DHT22;7873;52.230;12.856;2023-07-16T05:47:06;26.30;60.30
15543;DHT22;7873;52.230;12.856;2023-07-16T05:49:33;26.10;61.40
15543;DHT22;7873;52.230;12.856;2023-07-16T05:52:00;26.20;60.90
15543;DHT22;7873;52.230;12.856;2023-07-16T05:54:26;26.30;60.40
15543;DHT22;7873;52.230;12.856;2023-07-16T05:56:53;26.40;60.20
15543;DHT22;7873;52.230;12.856;2023-07-16T05:59:20;26.10;61.10
15543;DHT22;7873;52.230;12.856;2023-07-16T06:01:46;25.90;61.40
15543;DHT22;7873;52.230;12.856;2023-07-16T06:04:14;25.70;62.50
15543;DHT22;7873;52.230;12.856;2023-07-16T06:06:41;25.50;65.20
15543;DHT22;7873;52.230;12.856;2023-07-16T06:09:07;25.10;65.90
15543;DHT22;7873;52.230;12.856;2023-07-16T06:11:34;25.00;66.40
15543;DHT22;7873;52.230;12.856;2023-07-16T06:14:01;24.90;67.30
15543;DHT22;7873;52.230;12.856;2023-07-16T06:16:27;24.90;66.70
15543;DHT22;7873;52.230;12.856;2023-07-16T06:18:54;25.10;67.30
15543;DHT22;7873;52.230;12.856;2023-07-16T06:21:22;25.20;66.10
15543;DHT22;7873;52.230;12.856;2023-07-16T06:23:49;25.50;64.70
15543;DHT22;7873;52.230;12.856;2023-07-16T06:26:15;25.70;63.80
15543;DHT22;7873;52.230;12.856;2023-07-16T06:28:42;25.80;63.70
15543;DHT22;7873;52.230;12.856;2023-07-16T06:31:09;25.40;65.10
15543;DHT22;7873;52.230;12.856;2023-07-16T06:33:35;25.00;65.70
15543;DHT22;7873;52.230;12.856;2023-07-16T06:36:02;25.10;64.90
15543;DHT22;7873;52.230;12.856;2023-07-16T06:38:30;25.40;64.40
15543;DHT22;7873;52.230;12.856;2023-07-16T06:40:57;25.70;62.50
15543;DHT22;7873;52.230;12.856;2023-07-16T06:43:24;26.00;60.80
15543;DHT22;7873;52.230;12.856;2023-07-16T06:45:50;26.30;59.70
15543;DHT22;7873;52.230;12.856;2023-07-16T06:48:17;26.40;59.40
15543;DHT22;7873;52.230;12.856;2023-07-16T06:50:44;26.50;59.00
15543;DHT22;7873;52.230;12.856;2023-07-16T06:53:10;26.60;58.80
15543;DHT22;7873;52.230;12.856;2023-07-16T06:55:38;26.60;58.50
15543;DHT22;7873;52.230;12.856;2023-07-16T06:58:05;26.70;58.30
15543;DHT22;7873;52.230;12.856;2023-07-16T07:00:32;26.70;58.10
15543;DHT22;7873;52.230;12.856;2023-07-16T07:02:58;26.70;58.00
15543;DHT22;7873;52.230;12.856;2023-07-16T07:05:25;26.70;58.00
15543;DHT22;7873;52.230;12.856;2023-07-16T07:07:52;26.70;57.80
15543;DHT22;7873;52.230;12.856;2023-07-16T07:10:18;26.70;57.80
15543;DHT22;7873;52.230;12.856;2023-07-16T07:12:46;26.70;57.60
15543;DHT22;7873;52.230;12.856;2023-07-16T07:15:13;26.70;57.70
15543;DHT22;7873;52.230;12.856;2023-07-16T07:17:40;26.70;57.30
15543;DHT22;7873;52.230;12.856;2023-07-16T07:20:08;26.70;57.30
15543;DHT22;7873;52.230;12.856;2023-07-16T07:22:36;26.70;57.20
15543;DHT22;7873;52.230;12.856;2023-07-16T07:25:02;26.60;57.30
15543;DHT22;7873;52.230;12.856;2023-07-16T07:27:30;26.60;57.30
15543;DHT22;7873;52.230;12.856;2023-07-16T07:29:58;26.50;57.30
15543;DHT22;7873;52.230;12.856;2023-07-16T07:32:24;26.60;57.00
15543;DHT22;7873;52.230;12.856;2023-07-16T07:34:51;26.60;56.90
15543;DHT22;7873;52.230;12.856;2023-07-16T07:37:18;26.60;56.90
15543;DHT22;7873;52.230;12.856;2023-07-16T07:39:44;26.60;56.90
15543;DHT22;7873;52.230;12.856;2023-07-16T07:42:13;26.60;56.80
15543;DHT22;7873;52.230;12.856;2023-07-16T07:44:39;26.60;56.70
15543;DHT22;7873;52.230;12.856;2023-07-16T07:47:07;26.60;56.70
15543;DHT22;7873;52.230;12.856;2023-07-16T07:49:34;26.60;56.60
15543;DHT22;7873;52.230;12.856;2023-07-16T07:52:01;26.60;56.60
15543;DHT22;7873;52.230;12.856;2023-07-16T07:54:28;26.70;56.60
15543;DHT22;7873;52.230;12.856;2023-07-16T07:56:54;26.60;56.40
15543;DHT22;7873;52.230;12.856;2023-07-16T07:59:21;26.60;56.50
15543;DHT22;7873;52.230;12.856;2023-07-16T08:01:48;26.60;56.40
15543;DHT22;7873;52.230;12.856;2023-07-16T08:04:15;26.60;56.30
15543;DHT22;7873;52.230;12.856;2023-07-16T08:10:04;26.70;56.20
15543;DHT22;7873;52.230;12.856;2023-07-16T08:12:31;26.60;56.10
15543;DHT22;7873;52.230;12.856;2023-07-16T08:14:58;26.60;56.10
15543;DHT22;7873;52.230;12.856;2023-07-16T08:17:25;26.70;55.90
15543;DHT22;7873;52.230;12.856;2023-07-16T08:19:53;26.60;56.00
15543;DHT22;7873;52.230;12.856;2023-07-16T08:22:20;26.60;56.00
15543;DHT22;7873;52.230;12.856;2023-07-16T08:24:46;26.60;55.90
15543;DHT22;7873;52.230;12.856;2023-07-16T08:27:14;26.60;55.70
15543;DHT22;7873;52.230;12.856;2023-07-16T08:29:41;26.50;56.00
15543;DHT22;7873;52.230;12.856;2023-07-16T08:32:07;26.50;55.90
15543;DHT22;7873;52.230;12.856;2023-07-16T08:34:34;26.50;55.70
15543;DHT22;7873;52.230;12.856;2023-07-16T08:37:02;26.60;55.60
15543;DHT22;7873;52.230;12.856;2023-07-16T08:39:30;26.60;55.70
15543;DHT22;7873;52.230;12.856;2023-07-16T08:41:57;26.50;55.60
15543;DHT22;7873;52.230;12.856;2023-07-16T08:44:24;26.60;55.60
15543;DHT22;7873;52.230;12.856;2023-07-16T08:46:51;26.60;55.60
15543;DHT22;7873;52.230;12.856;2023-07-16T08:49:18;26.50;55.60
15543;DHT22;7873;52.230;12.856;2023-07-16T08:51:46;26.50;55.40
15543;DHT22;7873;52.230;12.856;2023-07-16T08:54:15;26.50;55.40
15543;DHT22;7873;52.230;12.856;2023-07-16T08:56:43;26.50;55.30
15543;DHT22;7873;52.230;12.856;2023-07-16T08:59:09;26.50;55.20
15543;DHT22;7873;52.230;12.856;2023-07-16T09:01:36;26.50;55.20
15543;DHT22;7873;52.230;12.856;2023-07-16T09:04:03;26.50;55.10
15543;DHT22;7873;52.230;12.856;2023-07-16T09:06:30;26.60;55.20
15543;DHT22;7873;52.230;12.856;2023-07-16T09:08:57;26.60;55.00
15543;DHT22;7873;52.230;12.856;2023-07-16T09:11:25;26.50;55.00
15543;DHT22;7873;52.230;12.856;2023-07-16T09:13:52;26.60;55.00
15543;DHT22;7873;52.230;12.856;2023-07-16T09:16:19;26.60;54.90
15543;DHT22;7873;52.230;12.856;2023-07-16T09:18:46;26.40;55.80
15543;DHT22;7873;52.230;12.856;2023-07-16T09:21:13;26.10;56.10
15543;DHT22;7873;52.230;12.856;2023-07-16T09:23:40;25.90;56.50
15543;DHT22;7873;52.230;12.856;2023-07-16T09:26:08;26.00;55.70
15543;DHT22;7873;52.230;12.856;2023-07-16T09:28:36;26.10;55.20
15543;DHT22;7873;52.230;12.856;2023-07-16T09:31:05;26.00;55.30
15543;DHT22;7873;52.230;12.856;2023-07-16T09:33:34;26.00;55.20
15543;DHT22;7873;52.230;12.856;2023-07-16T09:36:01;26.00;55.20
15543;DHT22;7873;52.230;12.856;2023-07-16T09:38:29;26.00;55.00
15543;DHT22;7873;52.230;12.856;2023-07-16T09:40:56;26.00;55.40
15543;DHT22;7873;52.230;12.856;2023-07-16T09:43:23;26.00;55.20
15543;DHT22;7873;52.230;12.856;2023-07-16T09:45:51;26.00;55.40
15543;DHT22;7873;52.230;12.856;2023-07-16T09:48:18;26.00;55.50
15543;DHT22;7873;52.230;12.856;2023-07-16T09:50:46;26.00;55.80
15543;DHT22;7873;52.230;12.856;2023-07-16T09:53:16;26.00;55.90
15543;DHT22;7873;52.230;12.856;2023-07-16T09:55:45;25.90;55.90
15543;DHT22;7873;52.230;12.856;2023-07-16T09:58:14;25.90;55.80
15543;DHT22;7873;52.230;12.856;2023-07-16T10:00:44;26.00;56.10
15543;DHT22;7873;52.230;12.856;2023-07-16T10:03:14;26.00;57.30
15543;DHT22;7873;52.230;12.856;2023-07-16T10:05:41;26.20;58.60
15543;DHT22;7873;52.230;12.856;2023-07-16T10:08:15;26.30;58.40
15543;DHT22;7873;52.230;12.856;2023-07-16T10:10:42;26.30;57.40
15543;DHT22;7873;52.230;12.856;2023-07-16T10:13:11;26.30;57.10
15543;DHT22;7873;52.230;12.856;2023-07-16T10:15:39;26.40;58.20
15543;DHT22;7873;52.230;12.856;2023-07-16T10:18:23;26.40;58.80
15543;DHT22;7873;52.230;12.856;2023-07-16T10:20:52;26.60;58.70
15543;DHT22;7873;52.230;12.856;2023-07-16T10:23:19;26.50;58.70
15543;DHT22;7873;52.230;12.856;2023-07-16T10:25:57;26.50;58.50
15543;DHT22;7873;52.230;12.856;2023-07-16T10:28:24;26.60;59.20
15543;DHT22;7873;52.230;12.856;2023-07-16T10:30:51;26.70;57.90
15543;DHT22;7873;52.230;12.856;2023-07-16T10:33:18;26.70;56.90
15543;DHT22;7873;52.230;12.856;2023-07-16T10:35:46;26.70;54.20
15543;DHT22;7873;52.230;12.856;2023-07-16T10:38:13;26.60;54.00
15543;DHT22;7873;52.230;12.856;2023-07-16T10:40:40;26.70;54.00
15543;DHT22;7873;52.230;12.856;2023-07-16T10:43:07;26.70;51.90
15543;DHT22;7873;52.230;12.856;2023-07-16T10:45:34;26.60;51.70
15543;DHT22;7873;52.230;12.856;2023-07-16T10:48:00;26.60;52.40
15543;DHT22;7873;52.230;12.856;2023-07-16T10:50:27;26.60;51.70
15543;DHT22;7873;52.230;12.856;2023-07-16T10:52:55;26.60;51.00
15543;DHT22;7873;52.230;12.856;2023-07-16T10:55:23;26.60;50.20
15543;DHT22;7873;52.230;12.856;2023-07-16T10:57:52;26.60;47.80
15543;DHT22;7873;52.230;12.856;2023-07-16T11:00:19;26.60;49.10
15543;DHT22;7873;52.230;12.856;2023-07-16T11:02:48;26.50;48.80
15543;DHT22;7873;52.230;12.856;2023-07-16T11:05:16;26.50;48.40
15543;DHT22;7873;52.230;12.856;2023-07-16T11:07:44;26.50;49.00
15543;DHT22;7873;52.230;12.856;2023-07-16T11:10:14;26.50;51.10
15543;DHT22;7873;52.230;12.856;2023-07-16T11:12:41;26.60;51.10
15543;DHT22;7873;52.230;12.856;2023-07-16T11:15:09;26.70;51.20
15543;DHT22;7873;52.230;12.856;2023-07-16T11:17:37;26.80;51.40
15543;DHT22;7873;52.230;12.856;2023-07-16T11:20:05;26.90;51.40
15543;DHT22;7873;52.230;12.856;2023-07-16T11:22:36;26.90;51.50
15543;DHT22;7873;52.230;12.856;2023-07-16T11:25:04;26.90;51.90
15543;DHT22;7873;52.230;12.856;2023-07-16T11:27:40;26.80;52.10
15543;DHT22;7873;52.230;12.856;2023-07-16T11:30:07;26.80;52.50
15543;DHT22;7873;52.230;12.856;2023-07-16T11:32:35;26.80;52.60
15543;DHT22;7873;52.230;12.856;2023-07-16T11:35:04;27.00;52.30
15543;DHT22;7873;52.230;12.856;2023-07-16T11:37:33;27.20;51.90
15543;DHT22;7873;52.230;12.856;2023-07-16T11:43:20;27.40;51.40
15543;DHT22;7873;52.230;12.856;2023-07-16T11:45:47;27.40;51.10
15543;DHT22;7873;52.230;12.856;2023-07-16T11:48:15;27.40;51.10
15543;DHT22;7873;52.230;12.856;2023-07-16T11:50:42;27.50;51.00
15543;DHT22;7873;52.230;12.856;2023-07-16T11:53:10;27.50;51.10
15543;DHT22;7873;52.230;12.856;2023-07-16T11:55:37;27.50;51.30
15543;DHT22;7873;52.230;12.856;2023-07-16T11:58:04;27.40;51.60
15543;DHT22;7873;52.230;12.856;2023-07-16T12:00:32;27.40;51.70
15543;DHT22;7873;52.230;12.856;2023-07-16T12:02:58;27.30;51.80
15543;DHT22;7873;52.230;12.856;2023-07-16T12:05:25;27.30;51.80
15543;DHT22;7873;52.230;12.856;2023-07-16T12:07:53;27.30;51.90
15543;DHT22;7873;52.230;12.856;2023-07-16T12:10:20;27.30;52.00
15543;DHT22;7873;52.230;12.856;2023-07-16T12:12:46;27.30;52.10
15543;DHT22;7873;52.230;12.856;2023-07-16T12:15:13;27.20;52.20
15543;DHT22;7873;52.230;12.856;2023-07-16T12:17:41;27.20;52.30
15543;DHT22;7873;52.230;12.856;2023-07-16T12:20:08;27.20;52.40
15543;DHT22;7873;52.230;12.856;2023-07-16T12:22:35;27.20;52.40
15543;DHT22;7873;52.230;12.856;2023-07-16T12:25:02;27.20;52.50
15543;DHT22;7873;52.230;12.856;2023-07-16T12:27:31;27.20;52.50
15543;DHT22;7873;52.230;12.856;2023-07-16T12:29:57;27.20;52.60
15543;DHT22;7873;52.230;12.856;2023-07-16T12:32:24;27.20;52.70
15543;DHT22;7873;52.230;12.856;2023-07-16T12:34:52;27.20;52.80
15543;DHT22;7873;52.230;12.856;2023-07-16T12:37:20;27.20;52.70
15543;DHT22;7873;52.230;12.856;2023-07-16T12:39:46;27.10;52.80
15543;DHT22;7873;52.230;12.856;2023-07-16T12:42:13;27.10;52.90
15543;DHT22;7873;52.230;12.856;2023-07-16T12:44:40;27.10;52.90
15543;DHT22;7873;52.230;12.856;2023-07-16T12:47:07;27.10;52.80
15543;DHT22;7873;52.230;12.856;2023-07-16T12:49:34;27.10;52.80
15543;DHT22;7873;52.230;12.856;2023-07-16T12:52:02;27.00;52.90
15543;DHT22;7873;52.230;12.856;2023-07-16T12:54:29;27.00;53.10
15543;DHT22;7873;52.230;12.856;2023-07-16T12:56:56;26.90;53.00
15543;DHT22;7873;52.230;12.856;2023-07-16T12:59:22;27.00;53.20
15543;DHT22;7873;52.230;12.856;2023-07-16T13:01:50;26.90;53.20
15543;DHT22;7873;52.230;12.856;2023-07-16T13:04:16;27.00;53.00
15543;DHT22;7873;52.230;12.856;2023-07-16T13:06:43;26.90;52.80
15543;DHT22;7873;52.230;12.856;2023-07-16T13:09:13;26.90;53.00
15543;DHT22;7873;52.230;12.856;2023-07-16T13:11:40;26.90;53.10
15543;DHT22;7873;52.230;12.856;2023-07-16T13:14:07;27.00;53.60
15543;DHT22;7873;52.230;12.856;2023-07-16T13:16:34;27.00;52.80
15543;DHT22;7873;52.230;12.856;2023-07-16T13:19:02;26.90;53.00
15543;DHT22;7873;52.230;12.856;2023-07-16T13:21:29;26.80;53.50
15543;DHT22;7873;52.230;12.856;2023-07-16T13:23:55;26.90;53.20
15543;DHT22;7873;52.230;12.856;2023-07-16T13:26:23;26.90;53.40
15543;DHT22;7873;52.230;12.856;2023-07-16T13:28:50;26.90;53.60
15543;DHT22;7873;52.230;12.856;2023-07-16T13:31:17;26.90;53.60
15543;DHT22;7873;52.230;12.856;2023-07-16T13:33:44;26.90;53.80
15543;DHT22;7873;52.230;12.856;2023-07-16T13:36:10;26.80;54.20
15543;DHT22;7873;52.230;12.856;2023-07-16T13:38:37;26.60;54.00
15543;DHT22;7873;52.230;12.856;2023-07-16T13:41:04;26.50;54.40
15543;DHT22;7873;52.230;12.856;2023-07-16T13:43:32;26.50;54.30
15543;DHT22;7873;52.230;12.856;2023-07-16T13:45:58;26.50;54.50
15543;DHT22;7873;52.230;12.856;2023-07-16T13:48:25;26.40;54.30
15543;DHT22;7873;52.230;12.856;2023-07-16T13:50:52;26.50;53.60
15543;DHT22;7873;52.230;12.856;2023-07-16T13:53:18;26.60;49.40
15543;DHT22;7873;52.230;12.856;2023-07-16T13:55:45;26.60;49.60
15543;DHT22;7873;52.230;12.856;2023-07-16T13:58:12;26.60;49.50
15543;DHT22;7873;52.230;12.856;2023-07-16T14:00:41;26.60;49.80
15543;DHT22;7873;52.230;12.856;2023-07-16T14:03:07;26.70;50.80
15543;DHT22;7873;52.230;12.856;2023-07-16T14:05:34;26.70;51.10
15543;DHT22;7873;52.230;12.856;2023-07-16T14:08:04;26.80;50.80
15543;DHT22;7873;52.230;12.856;2023-07-16T14:10:31;26.80;50.20
15543;DHT22;7873;52.230;12.856;2023-07-16T14:12:57;26.80;49.80
15543;DHT22;7873;52.230;12.856;2023-07-16T14:15:24;26.80;49.50
15543;DHT22;7873;52.230;12.856;2023-07-16T14:17:52;26.80;49.70
15543;DHT22;7873;52.230;12.856;2023-07-16T14:20:19;26.80;49.50
15543;DHT22;7873;52.230;12.856;2023-07-16T14:22:46;26.80;49.10
15543;DHT22;7873;52.230;12.856;2023-07-16T14:25:12;26.80;48.90
15543;DHT22;7873;52.230;12.856;2023-07-16T14:27:39;26.80;48.80
15543;DHT22;7873;52.230;12.856;2023-07-16T14:30:06;26.80;48.70
15543;DHT22;7873;52.230;12.856;2023-07-16T14:32:34;26.90;48.50
15543;DHT22;7873;52.230;12.856;2023-07-16T14:35:02;26.80;48.40
15543;DHT22;7873;52.230;12.856;2023-07-16T14:37:30;26.70;48.50
15543;DHT22;7873;52.230;12.856;2023-07-16T14:39:56;26.70;48.50
15543;DHT22;7873;52.230;12.856;2023-07-16T14:42:23;26.70;48.50
15543;DHT22;7873;52.230;12.856;2023-07-16T14:44:50;26.70;48.30
15543;DHT22;7873;52.230;12.856;2023-07-16T14:47:16;26.70;48.10
15543;DHT22;7873;52.230;12.856;2023-07-16T14:49:43;26.70;48.00
15543;DHT22;7873;52.230;12.856;2023-07-16T14:52:11;26.70;48.00
15543;DHT22;7873;52.230;12.856;2023-07-16T14:54:38;26.80;47.70
15543;DHT22;7873;52.230;12.856;2023-07-16T14:57:05;26.80;47.50
15543;DHT22;7873;52.230;12.856;2023-07-16T14:59:31;26.80;47.70
15543;DHT22;7873;52.230;12.856;2023-07-16T15:01:59;26.80;47.80
15543;DHT22;7873;52.230;12.856;2023-07-16T15:04:26;26.70;47.90
15543;DHT22;7873;52.230;12.856;2023-07-16T15:06:52;26.70;46.70
15543;DHT22;7873;52.230;12.856;2023-07-16T15:09:20;26.70;46.40
15543;DHT22;7873;52.230;12.856;2023-07-16T15:11:47;26.70;47.00
15543;DHT22;7873;52.230;12.856;2023-07-16T15:14:14;26.60;45.60
15543;DHT22;7873;52.230;12.856;2023-07-16T15:16:40;26.70;46.40
15543;DHT22;7873;52.230;12.856;2023-07-16T15:19:07;26.70;45.90
15543;DHT22;7873;52.230;12.856;2023-07-16T15:21:34;26.80;46.60
15543;DHT22;7873;52.230;12.856;2023-07-16T15:24:02;26.80;46.20
15543;DHT22;7873;52.230;12.856;2023-07-16T15:26:31;26.80;46.40
15543;DHT22;7873;52.230;12.856;2023-07-16T15:28:57;26.80;46.60
15543;DHT22;7873;52.230;12.856;2023-07-16T15:31:24;26.80;46.60
15543;DHT22;7873;52.230;12.856;2023-07-16T15:33:53;26.80;46.70
15543;DHT22;7873;52.230;12.856;2023-07-16T15:36:20;26.80;46.70
15543;DHT22;7873;52.230;12.856;2023-07-16T15:38:46;26.80;46.70